This is the latest recevied weather packets stored in our database for station/object K5GHS-1. If no packets are shown the sender has not sent any weather packets the latest 10 day(s).
| Time | Temp. | Humidity | Pressure | Rain* | Wind** | Luminosity | Snow |
|---|---|---|---|---|---|---|---|
| 1777764374 | 25.56° C | 37% | 1016.7 hPa | 0 mm | - | 49 W/m² | - |
| 1777764072 | 26.11° C | 34% | 1016.9 hPa | 0 mm | - | 52 W/m² | - |
| 1777763768 | 27.22° C | 32% | 1016.6 hPa | 0 mm | - | 134 W/m² | - |
| 1777763467 | 26.67° C | 32% | 1016.5 hPa | 0 mm | - | 228 W/m² | - |
| 1777763165 | 26.11° C | 34% | 1017 hPa | 0 mm | - | 229 W/m² | - |
| 1777762863 | 26.11° C | 34% | 1016.9 hPa | 0 mm | - | 239 W/m² | - |
| 1777762558 | 26.67° C | 34% | 1016.9 hPa | 0 mm | - | 285 W/m² | - |
| 1777762255 | 27.22° C | 35% | 1016.8 hPa | 0 mm | - | 67 W/m² | - |
| 1777761951 | 27.22° C | 33% | 1017 hPa | 0 mm | - | 291 W/m² | - |
| 1777761649 | 27.22° C | 32% | 1017 hPa | 0 mm | - | 328 W/m² | - |
| 1777761346 | 27.22° C | 34% | 1017.1 hPa | 0 mm | - | 354 W/m² | - |
| 1777761045 | 27.22° C | 33% | 1016.9 hPa | 0 mm | - | 344 W/m² | - |
| 1777760741 | 27.22° C | 31% | 1016.9 hPa | 0 mm | - | 337 W/m² | - |
| 1777760438 | 26.11° C | 34% | 1017 hPa | 0 mm | - | 334 W/m² | - |
| 1777760133 | 26.67° C | 34% | 1017.1 hPa | 0 mm | - | 362 W/m² | - |
| 1777759831 | 26.67° C | 33% | 1017 hPa | 0 mm | - | 122 W/m² | - |
| 1777759526 | 27.22° C | 29% | 1017.2 hPa | 0 mm | - | 428 W/m² | - |
| 1777759223 | 27.22° C | 31% | 1017.2 hPa | 0 mm | - | 459 W/m² | - |
| 1777758921 | 27.22° C | 31% | 1017.3 hPa | 0 mm | - | 471 W/m² | - |
| 1777758617 | 26.67° C | 33% | 1017.3 hPa | 0 mm | - | 478 W/m² | - |
| 1777758315 | 26.67° C | 32% | 1017.3 hPa | 0 mm | - | 457 W/m² | - |
| 1777758012 | 26.67° C | 31% | 1017.6 hPa | 0 mm | - | 487 W/m² | - |
| 1777757708 | 27.22° C | 31% | 1017.6 hPa | 0 mm | - | 493 W/m² | - |
| 1777757407 | 27.22° C | 31% | 1017.6 hPa | 0 mm | - | 484 W/m² | - |
| 1777757105 | 26.67° C | 31% | 1017.4 hPa | 0 mm | - | 492 W/m² | - |
* Rain latest hour (hover to see other rain measurements)
** Current wind speed in m/s (hover to see current wind gust speed)